createdAt,value
2023-08-28T00:00:03.546Z,1000.94
2023-08-28T00:00:33.584Z,1000.93
2023-08-28T00:01:03.560Z,1000.90
2023-08-28T00:01:33.527Z,1000.91
2023-08-28T00:02:03.521Z,1000.90
2023-08-28T00:02:33.590Z,1000.88
2023-08-28T00:03:03.820Z,1000.89
2023-08-28T00:03:33.610Z,1000.90
2023-08-28T00:04:03.604Z,1000.89
2023-08-28T00:04:33.516Z,1000.90
2023-08-28T00:05:03.501Z,1000.88
2023-08-28T00:05:33.537Z,1000.88
2023-08-28T00:06:04.255Z,1000.88
2023-08-28T00:06:33.653Z,1000.88
2023-08-28T00:07:03.474Z,1000.91
2023-08-28T00:07:33.546Z,1000.93
2023-08-28T00:08:03.453Z,1000.92
2023-08-28T00:08:34.266Z,1000.89
2023-08-28T00:09:03.447Z,1000.88
2023-08-28T00:09:33.503Z,1000.88
2023-08-28T00:10:03.454Z,1000.89
2023-08-28T00:10:33.421Z,1000.91
2023-08-28T00:11:03.436Z,1000.89
2023-08-28T00:11:33.422Z,1000.87
2023-08-28T00:12:03.399Z,1000.88
2023-08-28T00:12:33.412Z,1000.86
2023-08-28T00:13:03.727Z,1000.86
2023-08-28T00:13:33.385Z,1000.87
2023-08-28T00:14:03.387Z,1000.90
2023-08-28T00:14:33.411Z,1000.87
2023-08-28T00:15:03.398Z,1000.83
2023-08-28T00:15:33.372Z,1000.82
2023-08-28T00:16:03.443Z,1000.82
2023-08-28T00:16:33.412Z,1000.82
2023-08-28T00:17:03.358Z,1000.82
2023-08-28T00:17:33.458Z,1000.81
2023-08-28T00:18:03.375Z,1000.83
2023-08-28T00:18:33.334Z,1000.85
2023-08-28T00:19:03.361Z,1000.85
2023-08-28T00:19:33.374Z,1000.86
2023-08-28T00:20:03.447Z,1000.87
2023-08-28T00:20:33.567Z,1000.88
2023-08-28T00:21:03.331Z,1000.86
2023-08-28T00:21:33.328Z,1000.87
2023-08-28T00:22:03.335Z,1000.87
2023-08-28T00:22:33.334Z,1000.89
2023-08-28T00:23:03.481Z,1000.89
2023-08-28T00:23:33.288Z,1000.90
2023-08-28T00:24:03.272Z,1000.92
2023-08-28T00:24:33.298Z,1000.93
2023-08-28T00:25:03.291Z,1000.96
2023-08-28T00:25:33.298Z,1000.96
2023-08-28T00:26:03.324Z,1000.97
2023-08-28T00:26:33.271Z,1000.97
2023-08-28T00:27:03.289Z,1000.95
2023-08-28T00:27:33.263Z,1000.97
2023-08-28T00:28:03.270Z,1000.99
2023-08-28T00:28:33.246Z,1001.00
2023-08-28T00:29:03.227Z,1001.00
2023-08-28T00:29:33.291Z,1001.01
2023-08-28T00:30:03.244Z,1001.00
2023-08-28T00:30:33.290Z,1001.01
2023-08-28T00:31:03.224Z,1001.03
2023-08-28T00:31:33.245Z,1001.00
2023-08-28T00:32:03.342Z,1001.02
2023-08-28T00:32:33.244Z,1001.03
2023-08-28T00:33:03.454Z,1001.05
2023-08-28T00:33:33.186Z,1001.03
2023-08-28T00:34:03.333Z,1001.01
2023-08-28T00:34:33.350Z,1001.01
2023-08-28T00:35:03.180Z,1001.02
2023-08-28T00:35:33.262Z,1001.02
2023-08-28T00:36:03.174Z,1001.00
2023-08-28T00:36:33.167Z,1001.01
2023-08-28T00:37:03.177Z,1001.02
2023-08-28T00:37:33.146Z,1001.01
2023-08-28T00:38:03.174Z,1001.00
2023-08-28T00:38:33.125Z,1000.99
2023-08-28T00:39:03.125Z,1000.97
2023-08-28T00:39:33.147Z,1000.96
2023-08-28T00:40:03.120Z,1000.98
2023-08-28T00:40:33.150Z,1000.98
2023-08-28T00:41:03.105Z,1000.99
2023-08-28T00:41:33.102Z,1000.97
2023-08-28T00:42:03.099Z,1001.01
2023-08-28T00:42:33.243Z,1001.01
2023-08-28T00:43:03.377Z,1001.03
2023-08-28T00:43:33.067Z,1001.02
2023-08-28T00:44:03.059Z,1001.03
2023-08-28T00:44:33.076Z,1001.05
2023-08-28T00:45:03.062Z,1001.06
2023-08-28T00:45:33.046Z,1001.05
2023-08-28T00:46:03.114Z,1001.03
2023-08-28T00:46:33.065Z,1001.05
2023-08-28T00:47:03.042Z,1001.05
2023-08-28T00:47:33.080Z,1001.05
2023-08-28T00:48:03.218Z,1001.06
2023-08-28T00:48:33.197Z,1001.08
2023-08-28T00:49:03.027Z,1001.06
2023-08-28T00:49:33.007Z,1001.06
2023-08-28T00:50:03.038Z,1001.08
2023-08-28T00:50:33.014Z,1001.08
2023-08-28T00:51:03.019Z,1001.06
2023-08-28T00:51:33.000Z,1001.06
2023-08-28T00:52:03.004Z,1001.07
2023-08-28T00:52:32.983Z,1001.09
2023-08-28T00:53:03.354Z,1001.06
2023-08-28T00:53:32.965Z,1001.07
2023-08-28T00:54:02.973Z,1001.09
2023-08-28T00:54:32.954Z,1001.08
2023-08-28T00:55:02.957Z,1001.05
2023-08-28T00:55:32.954Z,1001.05
2023-08-28T00:56:02.940Z,1001.03
2023-08-28T00:56:32.971Z,1001.04
2023-08-28T00:57:02.937Z,1001.03
2023-08-28T00:57:32.965Z,1001.00
2023-08-28T00:58:02.931Z,1000.99
2023-08-28T00:58:32.963Z,1000.99
2023-08-28T00:59:02.938Z,1000.94
2023-08-28T00:59:32.906Z,1000.93
2023-08-28T01:00:02.907Z,1000.95
2023-08-28T01:00:32.895Z,1000.92
2023-08-28T01:01:02.934Z,1000.95
2023-08-28T01:01:32.894Z,1000.93
2023-08-28T01:02:03.001Z,1000.95
2023-08-28T01:02:33.123Z,1000.95
2023-08-28T01:03:03.040Z,1000.91
2023-08-28T01:03:32.911Z,1000.93
2023-08-28T01:04:02.857Z,1000.93
2023-08-28T01:04:32.966Z,1000.92
2023-08-28T01:05:02.873Z,1000.92
2023-08-28T01:05:32.850Z,1000.93
2023-08-28T01:06:02.850Z,1000.89
2023-08-28T01:06:32.830Z,1000.97
2023-08-28T01:07:03.026Z,1000.97
2023-08-28T01:07:32.861Z,1000.94
2023-08-28T01:08:02.808Z,1000.94
2023-08-28T01:08:32.836Z,1000.95
2023-08-28T01:09:02.806Z,1000.97
2023-08-28T01:09:32.795Z,1001.01
2023-08-28T01:10:02.801Z,1001.03
2023-08-28T01:10:32.792Z,1001.01
2023-08-28T01:11:02.773Z,1001.05
2023-08-28T01:11:32.777Z,1001.07
2023-08-28T01:12:02.820Z,1001.06
2023-08-28T01:12:32.793Z,1001.12
2023-08-28T01:13:02.966Z,1001.07
2023-08-28T01:13:32.761Z,1001.07
2023-08-28T01:14:02.777Z,1001.08
2023-08-28T01:14:32.751Z,1001.10
2023-08-28T01:15:02.785Z,1001.09
2023-08-28T01:15:32.826Z,1001.07
2023-08-28T01:16:02.957Z,1001.09
2023-08-28T01:16:32.894Z,1001.09
2023-08-28T01:17:02.715Z,1001.10
2023-08-28T01:17:32.726Z,1001.13
2023-08-28T01:18:02.760Z,1001.11
2023-08-28T01:18:32.694Z,1001.12
2023-08-28T01:19:03.292Z,1001.07
2023-08-28T01:19:32.679Z,1001.10
2023-08-28T01:20:02.712Z,1001.07
2023-08-28T01:20:32.685Z,1001.06
2023-08-28T01:21:02.658Z,1001.04
2023-08-28T01:21:32.705Z,1001.04
2023-08-28T01:22:02.672Z,1001.03
2023-08-28T01:22:32.680Z,1001.06
2023-08-28T01:23:02.859Z,1001.03
2023-08-28T01:23:32.661Z,1001.04
2023-08-28T01:24:02.641Z,1001.07
2023-08-28T01:24:32.637Z,1001.03
2023-08-28T01:25:02.639Z,1001.04
2023-08-28T01:25:32.644Z,1001.04
2023-08-28T01:26:02.640Z,1001.04
2023-08-28T01:26:32.617Z,1001.04
2023-08-28T01:27:02.615Z,1001.03
2023-08-28T01:27:32.605Z,1001.04
2023-08-28T01:28:02.628Z,1001.04
2023-08-28T01:28:32.588Z,1001.05
2023-08-28T01:29:02.591Z,1001.03
2023-08-28T01:29:32.579Z,1001.04
2023-08-28T01:30:02.696Z,1001.05
2023-08-28T01:30:32.773Z,1001.08
2023-08-28T01:31:02.595Z,1001.03
2023-08-28T01:31:32.588Z,1001.07
2023-08-28T01:32:02.555Z,1001.08
2023-08-28T01:32:32.576Z,1001.06
2023-08-28T01:33:02.870Z,1001.07
2023-08-28T01:33:32.552Z,1001.04
2023-08-28T01:34:02.547Z,1001.07
2023-08-28T01:34:32.515Z,1001.07
2023-08-28T01:35:02.773Z,1001.09
2023-08-28T01:35:33.139Z,1001.08
2023-08-28T01:36:02.513Z,1001.09
2023-08-28T01:36:32.593Z,1001.12
2023-08-28T01:37:02.519Z,1001.09
2023-08-28T01:37:32.486Z,1001.09
2023-08-28T01:38:02.491Z,1001.13
2023-08-28T01:38:32.473Z,1001.11
2023-08-28T01:39:02.481Z,1001.12
2023-08-28T01:39:32.499Z,1001.09
2023-08-28T01:40:02.457Z,1001.12
2023-08-28T01:40:32.451Z,1001.14
2023-08-28T01:41:02.448Z,1001.13
2023-08-28T01:41:32.442Z,1001.15
2023-08-28T01:42:02.446Z,1001.11
2023-08-28T01:42:32.440Z,1001.16
2023-08-28T01:43:02.748Z,1001.13
2023-08-28T01:43:32.465Z,1001.13
2023-08-28T01:44:02.566Z,1001.15
2023-08-28T01:44:32.596Z,1001.13
2023-08-28T01:45:02.429Z,1001.14
2023-08-28T01:45:32.445Z,1001.17
2023-08-28T01:46:04.945Z,1001.14
2023-08-28T01:46:32.434Z,1001.18
2023-08-28T01:47:02.395Z,1001.16
2023-08-28T01:47:32.442Z,1001.16
2023-08-28T01:48:02.416Z,1001.17
2023-08-28T01:48:32.376Z,1001.18
2023-08-28T01:49:02.376Z,1001.16
2023-08-28T01:49:32.361Z,1001.17
2023-08-28T01:50:02.360Z,1001.17
2023-08-28T01:50:32.394Z,1001.17
2023-08-28T01:51:02.360Z,1001.19
2023-08-28T01:51:32.326Z,1001.15
2023-08-28T01:52:02.337Z,1001.18
2023-08-28T01:52:32.360Z,1001.15
2023-08-28T01:53:02.646Z,1001.11
2023-08-28T01:53:33.288Z,1001.14
2023-08-28T01:54:02.324Z,1001.08
2023-08-28T01:54:32.309Z,1001.09
2023-08-28T01:55:02.299Z,1001.09
2023-08-28T01:55:32.324Z,1001.10
2023-08-28T01:56:02.294Z,1001.08
2023-08-28T01:56:32.285Z,1001.12
2023-08-28T01:57:02.292Z,1001.11
2023-08-28T01:57:32.289Z,1001.11
2023-08-28T01:58:02.422Z,1001.11
2023-08-28T01:58:32.474Z,1001.13
2023-08-28T01:59:02.263Z,1001.14
2023-08-28T01:59:32.250Z,1001.08
2023-08-28T02:00:02.274Z,1001.10
2023-08-28T02:00:32.239Z,1001.08
2023-08-28T02:01:02.301Z,1001.09
2023-08-28T02:01:32.322Z,1001.07
2023-08-28T02:02:02.279Z,1001.03
2023-08-28T02:02:32.284Z,1001.03
2023-08-28T02:03:02.468Z,1001.05
2023-08-28T02:03:32.236Z,1001.04
2023-08-28T02:04:02.209Z,1001.04
2023-08-28T02:04:32.199Z,1001.02
2023-08-28T02:05:02.219Z,1001.01
2023-08-28T02:05:32.190Z,1001.00
2023-08-28T02:06:02.179Z,1001.03
2023-08-28T02:06:32.207Z,1000.99
2023-08-28T02:07:02.180Z,1001.03
2023-08-28T02:07:32.157Z,1001.02
2023-08-28T02:08:02.158Z,1000.99
2023-08-28T02:08:32.150Z,1001.05
2023-08-28T02:09:02.178Z,1001.02
2023-08-28T02:09:32.148Z,1001.03
2023-08-28T02:10:02.212Z,1000.99
2023-08-28T02:10:32.169Z,1001.03
2023-08-28T02:11:02.117Z,1001.00
2023-08-28T02:11:32.130Z,1001.00
2023-08-28T02:12:02.276Z,1001.00
2023-08-28T02:12:32.302Z,1001.01
2023-08-28T02:13:02.439Z,1000.99
2023-08-28T02:13:32.098Z,1001.05
2023-08-28T02:14:02.088Z,1001.00
2023-08-28T02:14:32.121Z,1001.01
2023-08-28T02:15:02.079Z,1001.02
2023-08-28T02:15:32.107Z,1001.03
2023-08-28T02:16:02.063Z,1000.98
2023-08-28T02:16:32.075Z,1001.00
2023-08-28T02:17:02.133Z,1001.00
2023-08-28T02:17:32.358Z,1000.99
2023-08-28T02:18:02.074Z,1000.99
2023-08-28T02:18:32.064Z,1000.97
2023-08-28T02:19:02.043Z,1000.98
2023-08-28T02:19:32.094Z,1000.97
2023-08-28T02:20:02.037Z,1000.95
2023-08-28T02:20:32.049Z,1000.96
2023-08-28T02:21:02.057Z,1000.99
2023-08-28T02:21:32.043Z,1000.97
2023-08-28T02:22:02.012Z,1000.97
2023-08-28T02:22:32.004Z,1000.94
2023-08-28T02:23:02.220Z,1000.91
2023-08-28T02:23:31.994Z,1000.93
2023-08-28T02:24:01.990Z,1000.93
2023-08-28T02:24:31.984Z,1000.88
2023-08-28T02:25:01.980Z,1000.92
2023-08-28T02:25:32.044Z,1000.92
2023-08-28T02:26:02.142Z,1000.89
2023-08-28T02:26:32.139Z,1000.92
2023-08-28T02:27:01.954Z,1000.92
2023-08-28T02:27:32.671Z,1000.90
2023-08-28T02:28:01.954Z,1000.90
2023-08-28T02:28:31.939Z,1000.90
2023-08-28T02:29:01.920Z,1000.90
2023-08-28T02:29:31.939Z,1000.96
2023-08-28T02:30:01.926Z,1000.93
2023-08-28T02:30:31.923Z,1000.91
2023-08-28T02:31:01.979Z,1000.92
2023-08-28T02:31:31.933Z,1000.91
2023-08-28T02:32:01.903Z,1000.93
2023-08-28T02:32:31.911Z,1000.94
2023-08-28T02:33:02.308Z,1000.95
2023-08-28T02:33:31.888Z,1000.94
2023-08-28T02:34:01.959Z,1000.94
2023-08-28T02:34:31.869Z,1000.95
2023-08-28T02:35:01.870Z,1000.96
2023-08-28T02:35:31.864Z,1000.94
2023-08-28T02:36:01.854Z,1000.96
2023-08-28T02:36:31.885Z,1000.95
2023-08-28T02:37:01.853Z,1000.97
2023-08-28T02:37:31.838Z,1000.96
2023-08-28T02:38:01.869Z,1000.99
2023-08-28T02:38:31.827Z,1001.07
2023-08-28T02:39:01.843Z,1000.97
2023-08-28T02:39:31.824Z,1000.97
2023-08-28T02:40:01.935Z,1000.94
2023-08-28T02:40:31.995Z,1001.00
2023-08-28T02:41:01.799Z,1000.96
2023-08-28T02:41:31.805Z,1000.95
2023-08-28T02:42:01.876Z,1000.96
2023-08-28T02:42:31.785Z,1000.93
2023-08-28T02:43:02.057Z,1000.91
2023-08-28T02:43:31.770Z,1000.91
2023-08-28T02:44:01.766Z,1000.89
2023-08-28T02:44:31.785Z,1000.87
2023-08-28T02:45:01.767Z,1000.89
2023-08-28T02:45:31.756Z,1000.88
2023-08-28T02:46:01.779Z,1000.86
2023-08-28T02:46:31.762Z,1000.89
2023-08-28T02:47:01.779Z,1000.87
2023-08-28T02:47:31.776Z,1000.85
2023-08-28T02:48:01.826Z,1000.85
2023-08-28T02:48:31.724Z,1000.83
2023-08-28T02:49:01.742Z,1000.84
2023-08-28T02:49:31.732Z,1000.87
2023-08-28T02:50:01.740Z,1000.86
2023-08-28T02:50:31.687Z,1000.88
2023-08-28T02:51:01.716Z,1000.90
2023-08-28T02:51:31.726Z,1000.93
2023-08-28T02:52:01.685Z,1000.94
2023-08-28T02:52:31.674Z,1000.95
2023-08-28T02:53:01.912Z,1000.99
2023-08-28T02:53:31.684Z,1001.00
2023-08-28T02:54:01.780Z,1001.03
2023-08-28T02:54:31.847Z,1001.05
2023-08-28T02:55:01.695Z,1001.08
2023-08-28T02:55:31.658Z,1001.09
2023-08-28T02:56:01.637Z,1001.11
2023-08-28T02:56:31.664Z,1001.14
2023-08-28T02:57:01.658Z,1001.13
2023-08-28T02:57:31.625Z,1001.13
2023-08-28T02:58:01.612Z,1001.12
2023-08-28T02:58:31.611Z,1001.13
2023-08-28T02:59:01.623Z,1001.12
2023-08-28T02:59:31.601Z,1001.10
2023-08-28T03:00:01.614Z,1001.09
2023-08-28T03:00:31.601Z,1001.10
2023-08-28T03:01:01.614Z,1001.09
2023-08-28T03:01:31.699Z,1001.11
2023-08-28T03:02:01.615Z,1001.11
2023-08-28T03:02:31.672Z,1001.18
2023-08-28T03:03:02.041Z,1001.13
2023-08-28T03:03:31.605Z,1001.14
2023-08-28T03:04:01.611Z,1001.15
2023-08-28T03:04:31.569Z,1001.16
2023-08-28T03:05:01.563Z,1001.19
2023-08-28T03:05:31.547Z,1001.21
2023-08-28T03:06:01.569Z,1001.24
2023-08-28T03:06:31.548Z,1001.27
2023-08-28T03:07:01.555Z,1001.30
2023-08-28T03:07:31.524Z,1001.31
2023-08-28T03:08:01.643Z,1001.32
2023-08-28T03:08:31.677Z,1001.33
2023-08-28T03:09:01.511Z,1001.35
2023-08-28T03:09:31.501Z,1001.36
2023-08-28T03:10:01.485Z,1001.35
2023-08-28T03:10:31.716Z,1001.35
2023-08-28T03:11:01.480Z,1001.34
2023-08-28T03:11:31.498Z,1001.35
2023-08-28T03:12:01.479Z,1001.35
2023-08-28T03:12:31.499Z,1001.36
2023-08-28T03:13:01.592Z,1001.36
2023-08-28T03:13:31.471Z,1001.37
2023-08-28T03:14:01.485Z,1001.39
2023-08-28T03:14:31.460Z,1001.40
2023-08-28T03:15:01.437Z,1001.40
2023-08-28T03:15:31.455Z,1001.44
2023-08-28T03:16:01.483Z,1001.45
2023-08-28T03:16:31.480Z,1001.47
2023-08-28T03:17:02.322Z,1001.50
2023-08-28T03:17:31.441Z,1001.52
2023-08-28T03:18:01.510Z,1001.54
2023-08-28T03:18:32.036Z,1001.54
2023-08-28T03:19:01.400Z,1001.57
2023-08-28T03:19:31.386Z,1001.56
2023-08-28T03:20:01.395Z,1001.58
2023-08-28T03:20:31.384Z,1001.58
2023-08-28T03:21:01.367Z,1001.60
2023-08-28T03:21:31.371Z,1001.60
2023-08-28T03:22:01.535Z,1001.61
2023-08-28T03:22:31.550Z,1001.62
2023-08-28T03:23:01.576Z,1001.62
2023-08-28T03:23:31.377Z,1001.62
2023-08-28T03:24:02.294Z,1001.62
2023-08-28T03:24:31.345Z,1001.62
2023-08-28T03:25:01.325Z,1001.63
2023-08-28T03:25:31.369Z,1001.62
2023-08-28T03:26:01.330Z,1001.62
2023-08-28T03:26:31.363Z,1001.60
2023-08-28T03:27:01.298Z,1001.62
2023-08-28T03:27:31.311Z,1001.62
2023-08-28T03:28:01.327Z,1001.61
2023-08-28T03:28:31.324Z,1001.60
2023-08-28T03:29:01.312Z,1001.60
2023-08-28T03:29:31.288Z,1001.61
2023-08-28T03:30:01.305Z,1001.60
2023-08-28T03:30:31.283Z,1001.61
2023-08-28T03:31:01.262Z,1001.59
2023-08-28T03:31:31.320Z,1001.59
2023-08-28T03:32:01.288Z,1001.59
2023-08-28T03:32:31.291Z,1001.58
2023-08-28T03:33:01.713Z,1001.58
2023-08-28T03:33:31.242Z,1001.57
2023-08-28T03:34:01.251Z,1001.55
2023-08-28T03:34:31.271Z,1001.54
2023-08-28T03:35:01.246Z,1001.53
2023-08-28T03:35:31.226Z,1001.53
2023-08-28T03:36:01.339Z,1001.50
2023-08-28T03:36:31.410Z,1001.48
2023-08-28T03:37:01.246Z,1001.48
2023-08-28T03:37:31.226Z,1001.48
2023-08-28T03:38:01.205Z,1001.45
2023-08-28T03:38:31.191Z,1001.42
2023-08-28T03:39:01.186Z,1001.40
2023-08-28T03:39:31.181Z,1001.40
2023-08-28T03:40:01.199Z,1001.36
2023-08-28T03:40:31.169Z,1001.34
2023-08-28T03:41:01.164Z,1001.34
2023-08-28T03:41:31.163Z,1001.33
2023-08-28T03:42:01.184Z,1001.31
2023-08-28T03:42:31.151Z,1001.30
2023-08-28T03:43:01.415Z,1001.30
2023-08-28T03:43:31.141Z,1001.27
2023-08-28T03:44:01.128Z,1001.26
2023-08-28T03:44:31.181Z,1001.25
2023-08-28T03:45:01.124Z,1001.23
2023-08-28T03:45:31.139Z,1001.24
2023-08-28T03:46:01.139Z,1001.23
2023-08-28T03:46:31.141Z,1001.23
2023-08-28T03:47:01.093Z,1001.20
2023-08-28T03:47:31.141Z,1001.20
2023-08-28T03:48:01.139Z,1001.18
2023-08-28T03:48:31.117Z,1001.19
2023-08-28T03:49:01.130Z,1001.18
2023-08-28T03:49:31.088Z,1001.16
2023-08-28T03:50:01.224Z,1001.16
2023-08-28T03:50:31.308Z,1001.15
2023-08-28T03:51:01.078Z,1001.15
2023-08-28T03:51:31.061Z,1001.16
2023-08-28T03:52:01.039Z,1001.13
2023-08-28T03:52:31.081Z,1001.13
2023-08-28T03:53:01.402Z,1001.14
2023-08-28T03:53:31.044Z,1001.14
2023-08-28T03:54:01.036Z,1001.11
2023-08-28T03:54:31.019Z,1001.11
2023-08-28T03:55:01.802Z,1001.10
2023-08-28T03:55:30.950Z,1001.10
2023-08-28T03:56:01.016Z,1001.07
2023-08-28T03:56:31.008Z,1001.05
2023-08-28T03:57:00.949Z,1001.04
2023-08-28T03:57:30.967Z,1001.04
2023-08-28T03:58:00.966Z,1001.01
2023-08-28T03:58:30.912Z,1001.01
2023-08-28T03:59:00.917Z,1001.00
2023-08-28T03:59:30.925Z,1000.99
2023-08-28T04:00:00.925Z,1000.96
2023-08-28T04:00:30.966Z,1000.94
2023-08-28T04:01:00.905Z,1000.95
2023-08-28T04:01:30.950Z,1000.96
2023-08-28T04:02:00.889Z,1000.94
2023-08-28T04:02:30.903Z,1000.95
2023-08-28T04:03:01.271Z,1000.97
2023-08-28T04:03:30.938Z,1000.94
2023-08-28T04:04:01.065Z,1000.95
2023-08-28T04:04:31.056Z,1000.95
2023-08-28T04:05:12.758Z,1000.95
2023-08-28T04:05:30.855Z,1000.96
2023-08-28T04:06:00.954Z,1000.94
2023-08-28T04:06:30.828Z,1000.97
2023-08-28T04:07:00.832Z,1000.96
2023-08-28T04:07:30.870Z,1000.98
2023-08-28T04:08:00.839Z,1000.97
2023-08-28T04:08:30.813Z,1000.98
2023-08-28T04:09:00.809Z,1001.00
2023-08-28T04:09:31.021Z,1001.05
2023-08-28T04:10:00.811Z,1001.04
2023-08-28T04:10:30.803Z,1001.05
2023-08-28T04:11:00.801Z,1001.08
2023-08-28T04:11:30.801Z,1001.09
2023-08-28T04:12:00.812Z,1001.10
2023-08-28T04:12:30.830Z,1001.11
2023-08-28T04:13:01.075Z,1001.13
2023-08-28T04:13:30.780Z,1001.12
2023-08-28T04:14:00.758Z,1001.13
2023-08-28T04:14:30.764Z,1001.15
2023-08-28T04:15:00.765Z,1001.14
2023-08-28T04:15:30.851Z,1001.13
2023-08-28T04:16:00.830Z,1001.13
2023-08-28T04:16:30.776Z,1001.15
2023-08-28T04:17:00.736Z,1001.16
2023-08-28T04:17:30.765Z,1001.14
2023-08-28T04:18:01.188Z,1001.12
2023-08-28T04:18:30.908Z,1001.10
2023-08-28T04:19:00.721Z,1001.12
2023-08-28T04:19:30.701Z,1001.09
2023-08-28T04:20:00.703Z,1001.09
2023-08-28T04:20:30.700Z,1001.09
2023-08-28T04:21:00.697Z,1001.09
2023-08-28T04:21:30.680Z,1001.09
2023-08-28T04:22:00.674Z,1001.09
2023-08-28T04:22:31.311Z,1001.09
2023-08-28T04:23:00.885Z,1001.13
2023-08-28T04:23:30.679Z,1001.04
2023-08-28T04:24:00.648Z,1001.05
2023-08-28T04:24:30.656Z,1001.01
2023-08-28T04:25:00.637Z,1001.03
2023-08-28T04:25:30.659Z,1000.98
2023-08-28T04:26:00.641Z,1000.99
2023-08-28T04:26:30.642Z,1000.98
2023-08-28T04:27:00.622Z,1000.97
2023-08-28T04:27:30.610Z,1000.99
2023-08-28T04:28:00.617Z,1000.95
2023-08-28T04:28:30.620Z,1000.93
2023-08-28T04:29:00.652Z,1000.98
2023-08-28T04:29:30.617Z,1000.93
2023-08-28T04:30:00.608Z,1000.98
2023-08-28T04:30:30.589Z,1000.94
2023-08-28T04:31:00.596Z,1000.93
2023-08-28T04:31:30.643Z,1000.93
2023-08-28T04:32:00.690Z,1000.92
2023-08-28T04:32:30.765Z,1000.94
2023-08-28T04:33:00.884Z,1000.96
2023-08-28T04:33:30.552Z,1000.95
2023-08-28T04:34:00.583Z,1000.93
2023-08-28T04:34:30.556Z,1000.96
2023-08-28T04:35:00.558Z,1000.99
2023-08-28T04:35:30.566Z,1000.98
2023-08-28T04:36:02.852Z,1000.95
2023-08-28T04:36:31.317Z,1000.99
2023-08-28T04:37:00.523Z,1000.99
2023-08-28T04:37:30.518Z,1000.99
2023-08-28T04:38:00.589Z,1001.02
2023-08-28T04:38:30.499Z,1001.06
2023-08-28T04:39:00.511Z,1001.02
2023-08-28T04:39:30.480Z,1001.04
2023-08-28T04:40:00.483Z,1001.07
2023-08-28T04:40:30.498Z,1001.05
2023-08-28T04:41:00.474Z,1001.07
2023-08-28T04:41:30.460Z,1001.05
2023-08-28T04:42:00.466Z,1001.06
2023-08-28T04:42:30.433Z,1001.06
2023-08-28T04:43:00.761Z,1001.09
2023-08-28T04:43:30.484Z,1001.11
2023-08-28T04:44:00.441Z,1001.11
2023-08-28T04:44:30.427Z,1001.09
2023-08-28T04:45:00.449Z,1001.11
2023-08-28T04:45:30.437Z,1001.11
2023-08-28T04:46:00.566Z,1001.12
2023-08-28T04:46:30.645Z,1001.11
2023-08-28T04:47:00.392Z,1001.12
2023-08-28T04:47:30.442Z,1001.11
2023-08-28T04:48:00.464Z,1001.12
2023-08-28T04:48:30.383Z,1001.11
2023-08-28T04:49:00.382Z,1001.10
2023-08-28T04:49:32.138Z,1001.10
2023-08-28T04:50:00.388Z,1001.10
2023-08-28T04:50:30.469Z,1001.12
2023-08-28T04:51:00.363Z,1001.12
2023-08-28T04:51:30.384Z,1001.11
2023-08-28T04:52:00.395Z,1001.12
2023-08-28T04:52:30.439Z,1001.11
2023-08-28T04:53:00.430Z,1001.14
2023-08-28T04:53:30.488Z,1001.12
2023-08-28T04:54:00.341Z,1001.12
2023-08-28T04:54:30.343Z,1001.13
2023-08-28T04:55:00.334Z,1001.13
2023-08-28T04:55:30.416Z,1001.14
2023-08-28T04:56:00.346Z,1001.15
2023-08-28T04:56:30.410Z,1001.16
2023-08-28T04:57:00.346Z,1001.17
2023-08-28T04:57:30.290Z,1001.18
2023-08-28T04:58:00.287Z,1001.18
2023-08-28T04:58:30.268Z,1001.19
2023-08-28T04:59:00.323Z,1001.19
2023-08-28T04:59:30.272Z,1001.20
2023-08-28T05:00:00.466Z,1001.22
2023-08-28T05:00:31.051Z,1001.22
2023-08-28T05:01:00.319Z,1001.25
2023-08-28T05:01:30.546Z,1001.26
2023-08-28T05:02:00.230Z,1001.29
2023-08-28T05:02:30.314Z,1001.30
2023-08-28T05:03:00.295Z,1001.31
2023-08-28T05:03:30.315Z,1001.32
2023-08-28T05:04:00.259Z,1001.33
2023-08-28T05:04:30.198Z,1001.34
2023-08-28T05:05:00.233Z,1001.34
2023-08-28T05:05:30.256Z,1001.32
2023-08-28T05:06:00.229Z,1001.34
2023-08-28T05:06:30.208Z,1001.33
2023-08-28T05:07:00.218Z,1001.35
2023-08-28T05:07:30.226Z,1001.33
2023-08-28T05:08:00.233Z,1001.33
2023-08-28T05:08:30.179Z,1001.33
2023-08-28T05:09:00.207Z,1001.35
2023-08-28T05:09:30.162Z,1001.32
2023-08-28T05:10:00.177Z,1001.32
2023-08-28T05:10:30.149Z,1001.34
2023-08-28T05:11:00.206Z,1001.32
2023-08-28T05:11:30.158Z,1001.32
2023-08-28T05:12:00.143Z,1001.31
2023-08-28T05:12:30.174Z,1001.31
2023-08-28T05:13:00.252Z,1001.31
2023-08-28T05:13:31.086Z,1001.30
2023-08-28T05:14:00.254Z,1001.30
2023-08-28T05:14:30.522Z,1001.31
2023-08-28T05:15:00.146Z,1001.30
2023-08-28T05:15:30.136Z,1001.29
2023-08-28T05:16:00.113Z,1001.28
2023-08-28T05:16:30.091Z,1001.31
2023-08-28T05:17:00.111Z,1001.30
2023-08-28T05:17:30.104Z,1001.28
2023-08-28T05:18:00.106Z,1001.29
2023-08-28T05:18:30.062Z,1001.28
2023-08-28T05:19:00.069Z,1001.30
2023-08-28T05:19:30.106Z,1001.29
2023-08-28T05:20:00.057Z,1001.31
2023-08-28T05:20:30.055Z,1001.31
2023-08-28T05:21:00.075Z,1001.32
2023-08-28T05:21:30.027Z,1001.35
2023-08-28T05:22:00.043Z,1001.34
2023-08-28T05:22:30.064Z,1001.33
2023-08-28T05:23:00.017Z,1001.33
2023-08-28T05:23:30.019Z,1001.35
2023-08-28T05:23:59.998Z,1001.35
2023-08-28T05:24:30.046Z,1001.35
2023-08-28T05:24:59.996Z,1001.34
2023-08-28T05:25:33.251Z,1001.35
2023-08-28T05:25:59.983Z,1001.33
2023-08-28T05:26:29.982Z,1001.34
2023-08-28T05:27:00.023Z,1001.33
2023-08-28T05:27:29.974Z,1001.36
2023-08-28T05:28:00.076Z,1001.34
2023-08-28T05:28:30.175Z,1001.34
2023-08-28T05:28:59.952Z,1001.36
2023-08-28T05:29:29.959Z,1001.36
2023-08-28T05:29:59.945Z,1001.36
2023-08-28T05:30:29.973Z,1001.36
2023-08-28T05:31:00.018Z,1001.36
2023-08-28T05:31:29.985Z,1001.38
2023-08-28T05:31:59.920Z,1001.36
2023-08-28T05:32:29.949Z,1001.35
2023-08-28T05:32:59.933Z,1001.35
2023-08-28T05:33:29.963Z,1001.36
2023-08-28T05:33:59.897Z,1001.39
2023-08-28T05:34:29.912Z,1001.35
2023-08-28T05:34:59.961Z,1001.34
2023-08-28T05:35:29.910Z,1001.36
2023-08-28T05:35:59.862Z,1001.35
2023-08-28T05:36:29.874Z,1001.34
2023-08-28T05:36:59.863Z,1001.32
2023-08-28T05:37:29.864Z,1001.34
2023-08-28T05:37:59.890Z,1001.30
2023-08-28T05:38:30.237Z,1001.32
2023-08-28T05:38:59.882Z,1001.31
2023-08-28T05:39:29.845Z,1001.31
2023-08-28T05:39:59.831Z,1001.33
2023-08-28T05:40:29.826Z,1001.33
2023-08-28T05:40:59.965Z,1001.33
2023-08-28T05:41:29.853Z,1001.36
2023-08-28T05:41:59.943Z,1001.35
2023-08-28T05:42:29.984Z,1001.34
2023-08-28T05:42:59.790Z,1001.35
2023-08-28T05:43:29.808Z,1001.35
2023-08-28T05:43:59.803Z,1001.39
2023-08-28T05:44:29.792Z,1001.35
2023-08-28T05:44:59.901Z,1001.36
2023-08-28T05:45:29.782Z,1001.36
2023-08-28T05:45:59.772Z,1001.36
2023-08-28T05:46:29.852Z,1001.33
2023-08-28T05:46:59.824Z,1001.33
2023-08-28T05:47:29.816Z,1001.32
2023-08-28T05:48:00.123Z,1001.33
2023-08-28T05:48:29.765Z,1001.35
2023-08-28T05:49:00.342Z,1001.33
2023-08-28T05:49:29.743Z,1001.32
2023-08-28T05:49:59.758Z,1001.33
2023-08-28T05:50:29.710Z,1001.34
2023-08-28T05:50:59.718Z,1001.36
2023-08-28T05:51:29.738Z,1001.37
2023-08-28T05:51:59.710Z,1001.37
2023-08-28T05:52:29.708Z,1001.37
2023-08-28T05:52:59.780Z,1001.38
2023-08-28T05:53:29.693Z,1001.36
2023-08-28T05:53:59.685Z,1001.37
2023-08-28T05:54:29.674Z,1001.39
2023-08-28T05:54:59.663Z,1001.40
2023-08-28T05:55:29.672Z,1001.41
2023-08-28T05:55:59.780Z,1001.41
2023-08-28T05:56:29.880Z,1001.43
2023-08-28T05:56:59.688Z,1001.42
2023-08-28T05:57:29.640Z,1001.45
2023-08-28T05:57:59.631Z,1001.44
2023-08-28T05:58:29.622Z,1001.45
2023-08-28T05:58:59.635Z,1001.48
2023-08-28T05:59:29.603Z,1001.50
2023-08-28T05:59:59.609Z,1001.52
2023-08-28T06:00:30.335Z,1001.50
2023-08-28T06:00:59.622Z,1001.54
2023-08-28T06:01:29.583Z,1001.54
2023-08-28T06:01:59.614Z,1001.54
2023-08-28T06:02:29.645Z,1001.55